sensor_id;sensor_type;location;lat;lon;timestamp;temperature;humidity
66722;SHT31;53633;49.932;10.884;2024-01-30T08:27:01;2.90;81.84
66722;SHT31;53633;49.932;10.884;2024-01-30T08:29:28;2.76;81.82
66722;SHT31;53633;49.932;10.884;2024-01-30T08:31:54;2.86;81.85
66722;SHT31;53633;49.932;10.884;2024-01-30T08:34:21;2.83;81.78
66722;SHT31;53633;49.932;10.884;2024-01-30T08:36:48;2.80;81.72
66722;SHT31;53633;49.932;10.884;2024-01-30T08:39:15;2.82;81.50
66722;SHT31;53633;49.932;10.884;2024-01-30T08:41:42;2.79;81.86
66722;SHT31;53633;49.932;10.884;2024-01-30T08:44:10;2.71;82.29
66722;SHT31;53633;49.932;10.884;2024-01-30T08:46:36;2.73;82.36
66722;SHT31;53633;49.932;10.884;2024-01-30T08:49:03;2.77;82.23
66722;SHT31;53633;49.932;10.884;2024-01-30T08:51:30;2.82;82.29
66722;SHT31;53633;49.932;10.884;2024-01-30T08:53:57;2.86;82.39
66722;SHT31;53633;49.932;10.884;2024-01-30T08:56:24;2.93;82.02
66722;SHT31;53633;49.932;10.884;2024-01-30T08:58:50;2.76;82.75
66722;SHT31;53633;49.932;10.884;2024-01-30T09:01:19;2.86;82.42
66722;SHT31;53633;49.932;10.884;2024-01-30T09:03:45;2.97;82.37
66722;SHT31;53633;49.932;10.884;2024-01-30T09:06:12;3.03;82.53
66722;SHT31;53633;49.932;10.884;2024-01-30T09:08:39;3.04;82.40
66722;SHT31;53633;49.932;10.884;2024-01-30T09:11:08;3.01;82.45
66722;SHT31;53633;49.932;10.884;2024-01-30T09:13:35;2.99;82.55
66722;SHT31;53633;49.932;10.884;2024-01-30T09:16:02;2.94;82.42
66722;SHT31;53633;49.932;10.884;2024-01-30T09:18:31;3.00;82.38
66722;SHT31;53633;49.932;10.884;2024-01-30T09:20:57;3.05;82.32
66722;SHT31;53633;49.932;10.884;2024-01-30T09:23:24;3.04;82.52
66722;SHT31;53633;49.932;10.884;2024-01-30T09:25:51;3.05;82.60
66722;SHT31;53633;49.932;10.884;2024-01-30T09:28:17;3.13;82.60
66722;SHT31;53633;49.932;10.884;2024-01-30T09:30:45;3.08;82.62
66722;SHT31;53633;49.932;10.884;2024-01-30T09:33:13;3.14;82.89
66722;SHT31;53633;49.932;10.884;2024-01-30T09:35:41;3.03;83.03
66722;SHT31;53633;49.932;10.884;2024-01-30T09:38:08;3.01;83.34
66722;SHT31;53633;49.932;10.884;2024-01-30T09:40:35;3.01;83.67
66722;SHT31;53633;49.932;10.884;2024-01-30T09:43:02;2.97;83.72
66722;SHT31;53633;49.932;10.884;2024-01-30T09:45:29;2.90;83.63
66722;SHT31;53633;49.932;10.884;2024-01-30T09:47:59;2.93;83.89
66722;SHT31;53633;49.932;10.884;2024-01-30T09:50:26;2.92;83.64
66722;SHT31;53633;49.932;10.884;2024-01-30T09:52:55;3.00;83.14
66722;SHT31;53633;49.932;10.884;2024-01-30T09:55:22;3.10;83.19
66722;SHT31;53633;49.932;10.884;2024-01-30T09:57:49;3.11;83.35
66722;SHT31;53633;49.932;10.884;2024-01-30T10:00:16;3.14;83.02
66722;SHT31;53633;49.932;10.884;2024-01-30T10:02:43;3.25;82.77
66722;SHT31;53633;49.932;10.884;2024-01-30T10:05:11;3.27;82.57
66722;SHT31;53633;49.932;10.884;2024-01-30T10:07:50;3.34;82.32
66722;SHT31;53633;49.932;10.884;2024-01-30T10:10:18;3.32;82.48
66722;SHT31;53633;49.932;10.884;2024-01-30T10:12:45;3.55;82.19
66722;SHT31;53633;49.932;10.884;2024-01-30T10:15:13;3.69;82.00
66722;SHT31;53633;49.932;10.884;2024-01-30T10:17:40;3.75;81.76
66722;SHT31;53633;49.932;10.884;2024-01-30T10:20:08;3.87;81.71
66722;SHT31;53633;49.932;10.884;2024-01-30T10:22:35;4.01;81.66
66722;SHT31;53633;49.932;10.884;2024-01-30T10:25:02;4.08;81.48
66722;SHT31;53633;49.932;10.884;2024-01-30T10:27:33;4.07;82.14
66722;SHT31;53633;49.932;10.884;2024-01-30T10:30:00;4.16;82.10
66722;SHT31;53633;49.932;10.884;2024-01-30T10:32:27;4.03;82.60
66722;SHT31;53633;49.932;10.884;2024-01-30T10:34:53;4.21;81.91
66722;SHT31;53633;49.932;10.884;2024-01-30T10:37:21;4.25;81.56
66722;SHT31;53633;49.932;10.884;2024-01-30T10:39:53;4.37;81.40
66722;SHT31;53633;49.932;10.884;2024-01-30T10:42:20;4.40;81.30
66722;SHT31;53633;49.932;10.884;2024-01-30T10:44:57;4.44;81.10
66722;SHT31;53633;49.932;10.884;2024-01-30T10:47:26;4.56;80.83
66722;SHT31;53633;49.932;10.884;2024-01-30T10:49:54;4.63;80.45
66722;SHT31;53633;49.932;10.884;2024-01-30T10:52:23;4.73;80.44
66722;SHT31;53633;49.932;10.884;2024-01-30T10:54:50;4.80;80.34
66722;SHT31;53633;49.932;10.884;2024-01-30T10:57:17;4.75;80.36
66722;SHT31;53633;49.932;10.884;2024-01-30T10:59:44;4.83;80.16
66722;SHT31;53633;49.932;10.884;2024-01-30T11:02:14;4.87;80.32
66722;SHT31;53633;49.932;10.884;2024-01-30T11:04:41;4.94;80.04
66722;SHT31;53633;49.932;10.884;2024-01-30T11:07:15;5.01;79.67
66722;SHT31;53633;49.932;10.884;2024-01-30T11:09:48;4.96;80.23
66722;SHT31;53633;49.932;10.884;2024-01-30T11:12:15;5.07;80.28
66722;SHT31;53633;49.932;10.884;2024-01-30T11:14:42;5.10;80.11
66722;SHT31;53633;49.932;10.884;2024-01-30T11:17:09;5.16;80.17
66722;SHT31;53633;49.932;10.884;2024-01-30T11:19:37;5.28;79.69
66722;SHT31;53633;49.932;10.884;2024-01-30T11:22:06;5.30;79.26
66722;SHT31;53633;49.932;10.884;2024-01-30T11:24:39;5.31;79.39
66722;SHT31;53633;49.932;10.884;2024-01-30T11:27:08;5.30;79.56
66722;SHT31;53633;49.932;10.884;2024-01-30T11:29:35;5.40;79.35
66722;SHT31;53633;49.932;10.884;2024-01-30T11:32:03;5.45;78.84
66722;SHT31;53633;49.932;10.884;2024-01-30T11:34:29;5.49;78.78
66722;SHT31;53633;49.932;10.884;2024-01-30T11:36:59;5.55;78.84
66722;SHT31;53633;49.932;10.884;2024-01-30T11:39:27;5.55;78.66
66722;SHT31;53633;49.932;10.884;2024-01-30T11:41:55;5.66;78.59
66722;SHT31;53633;49.932;10.884;2024-01-30T11:44:23;5.70;78.28
66722;SHT31;53633;49.932;10.884;2024-01-30T11:46:50;5.72;78.06
66722;SHT31;53633;49.932;10.884;2024-01-30T11:49:18;5.83;78.00
66722;SHT31;53633;49.932;10.884;2024-01-30T11:51:45;5.90;77.69
66722;SHT31;53633;49.932;10.884;2024-01-30T11:54:14;5.93;77.47
66722;SHT31;53633;49.932;10.884;2024-01-30T11:56:42;6.00;77.34
66722;SHT31;53633;49.932;10.884;2024-01-30T11:59:09;6.00;77.46
66722;SHT31;53633;49.932;10.884;2024-01-30T12:01:36;6.04;77.44
66722;SHT31;53633;49.932;10.884;2024-01-30T12:04:03;6.10;77.20
66722;SHT31;53633;49.932;10.884;2024-01-30T12:06:30;6.09;77.33
66722;SHT31;53633;49.932;10.884;2024-01-30T12:08:58;6.16;77.00
66722;SHT31;53633;49.932;10.884;2024-01-30T12:11:26;6.25;76.78
66722;SHT31;53633;49.932;10.884;2024-01-30T12:13:53;6.27;76.82
66722;SHT31;53633;49.932;10.884;2024-01-30T12:16:20;6.35;76.82
66722;SHT31;53633;49.932;10.884;2024-01-30T12:18:47;6.31;76.00
66722;SHT31;53633;49.932;10.884;2024-01-30T12:21:16;6.34;75.83
66722;SHT31;53633;49.932;10.884;2024-01-30T12:23:43;6.40;75.31
66722;SHT31;53633;49.932;10.884;2024-01-30T12:26:10;6.45;74.83
66722;SHT31;53633;49.932;10.884;2024-01-30T12:28:47;6.52;74.78
66722;SHT31;53633;49.932;10.884;2024-01-30T12:31:14;6.61;74.68
66722;SHT31;53633;49.932;10.884;2024-01-30T12:33:41;6.61;74.80
66722;SHT31;53633;49.932;10.884;2024-01-30T12:36:08;6.68;74.15
66722;SHT31;53633;49.932;10.884;2024-01-30T12:38:35;6.69;74.09
66722;SHT31;53633;49.932;10.884;2024-01-30T12:41:01;6.71;74.23
66722;SHT31;53633;49.932;10.884;2024-01-30T12:43:29;6.75;74.08
66722;SHT31;53633;49.932;10.884;2024-01-30T12:46:06;6.75;74.44
66722;SHT31;53633;49.932;10.884;2024-01-30T12:48:33;6.73;74.34
66722;SHT31;53633;49.932;10.884;2024-01-30T12:51:00;6.79;74.29
66722;SHT31;53633;49.932;10.884;2024-01-30T12:53:27;6.85;74.16
66722;SHT31;53633;49.932;10.884;2024-01-30T12:55:53;6.88;74.25
66722;SHT31;53633;49.932;10.884;2024-01-30T12:58:20;6.89;74.05
66722;SHT31;53633;49.932;10.884;2024-01-30T13:00:47;6.86;73.86
66722;SHT31;53633;49.932;10.884;2024-01-30T13:03:15;6.90;74.15
66722;SHT31;53633;49.932;10.884;2024-01-30T13:05:42;6.90;74.23
66722;SHT31;53633;49.932;10.884;2024-01-30T13:08:09;6.96;73.61
66722;SHT31;53633;49.932;10.884;2024-01-30T13:10:36;6.97;73.76
66722;SHT31;53633;49.932;10.884;2024-01-30T13:13:03;6.97;73.85
66722;SHT31;53633;49.932;10.884;2024-01-30T13:15:30;7.01;73.92
66722;SHT31;53633;49.932;10.884;2024-01-30T13:17:56;7.03;73.74
66722;SHT31;53633;49.932;10.884;2024-01-30T13:20:24;7.07;74.06
66722;SHT31;53633;49.932;10.884;2024-01-30T13:22:51;7.07;73.40
66722;SHT31;53633;49.932;10.884;2024-01-30T13:25:18;7.11;73.50
66722;SHT31;53633;49.932;10.884;2024-01-30T13:27:45;7.16;73.55
66722;SHT31;53633;49.932;10.884;2024-01-30T13:30:12;7.16;73.35
66722;SHT31;53633;49.932;10.884;2024-01-30T13:32:38;7.20;73.54
66722;SHT31;53633;49.932;10.884;2024-01-30T13:35:05;7.19;73.57
66722;SHT31;53633;49.932;10.884;2024-01-30T13:37:34;7.21;73.11
66722;SHT31;53633;49.932;10.884;2024-01-30T13:40:01;7.19;73.32
66722;SHT31;53633;49.932;10.884;2024-01-30T13:42:31;7.23;73.44
66722;SHT31;53633;49.932;10.884;2024-01-30T13:44:58;7.21;73.43
66722;SHT31;53633;49.932;10.884;2024-01-30T13:47:25;7.24;73.57
66722;SHT31;53633;49.932;10.884;2024-01-30T13:49:52;7.24;73.59
66722;SHT31;53633;49.932;10.884;2024-01-30T13:52:19;7.24;73.73
66722;SHT31;53633;49.932;10.884;2024-01-30T13:54:49;7.27;73.85
66722;SHT31;53633;49.932;10.884;2024-01-30T13:57:16;7.27;73.33
66722;SHT31;53633;49.932;10.884;2024-01-30T13:59:43;7.24;73.50
66722;SHT31;53633;49.932;10.884;2024-01-30T14:02:09;7.28;73.43
66722;SHT31;53633;49.932;10.884;2024-01-30T14:04:36;7.26;73.55
66722;SHT31;53633;49.932;10.884;2024-01-30T14:07:03;7.23;73.66
66722;SHT31;53633;49.932;10.884;2024-01-30T14:09:31;7.26;73.75
66722;SHT31;53633;49.932;10.884;2024-01-30T14:11:59;7.26;73.64
66722;SHT31;53633;49.932;10.884;2024-01-30T14:14:26;7.24;73.72
66722;SHT31;53633;49.932;10.884;2024-01-30T14:16:53;7.24;73.68
66722;SHT31;53633;49.932;10.884;2024-01-30T14:19:19;7.21;73.70
66722;SHT31;53633;49.932;10.884;2024-01-30T14:21:46;7.23;73.97
66722;SHT31;53633;49.932;10.884;2024-01-30T14:24:13;7.21;74.09
66722;SHT31;53633;49.932;10.884;2024-01-30T14:26:39;7.20;74.25
66722;SHT31;53633;49.932;10.884;2024-01-30T14:29:08;7.21;74.12
66722;SHT31;53633;49.932;10.884;2024-01-30T14:31:34;7.26;74.16
66722;SHT31;53633;49.932;10.884;2024-01-30T14:34:01;7.23;74.19
66722;SHT31;53633;49.932;10.884;2024-01-30T14:36:28;7.20;74.34
66722;SHT31;53633;49.932;10.884;2024-01-30T14:38:55;7.23;74.31
66722;SHT31;53633;49.932;10.884;2024-01-30T14:41:21;7.20;74.53
66722;SHT31;53633;49.932;10.884;2024-01-30T14:43:48;7.19;74.55
66722;SHT31;53633;49.932;10.884;2024-01-30T14:46:16;7.14;74.56
66722;SHT31;53633;49.932;10.884;2024-01-30T14:48:43;7.11;74.58
66722;SHT31;53633;49.932;10.884;2024-01-30T14:51:10;7.10;74.76
66722;SHT31;53633;49.932;10.884;2024-01-30T14:53:37;7.09;74.90
66722;SHT31;53633;49.932;10.884;2024-01-30T14:56:04;7.07;74.97
66722;SHT31;53633;49.932;10.884;2024-01-30T14:58:31;7.04;75.07
66722;SHT31;53633;49.932;10.884;2024-01-30T15:00:58;7.03;75.26
66722;SHT31;53633;49.932;10.884;2024-01-30T15:03:28;6.99;75.38
66722;SHT31;53633;49.932;10.884;2024-01-30T15:05:55;7.00;75.41
66722;SHT31;53633;49.932;10.884;2024-01-30T15:08:22;6.96;75.56
66722;SHT31;53633;49.932;10.884;2024-01-30T15:10:49;6.95;75.72
66722;SHT31;53633;49.932;10.884;2024-01-30T15:13:19;6.92;75.78
66722;SHT31;53633;49.932;10.884;2024-01-30T15:15:45;6.89;75.85
66722;SHT31;53633;49.932;10.884;2024-01-30T15:18:12;6.89;75.82
66722;SHT31;53633;49.932;10.884;2024-01-30T15:20:41;6.89;75.96
66722;SHT31;53633;49.932;10.884;2024-01-30T15:23:08;6.85;76.09
66722;SHT31;53633;49.932;10.884;2024-01-30T15:25:34;6.83;76.14
66722;SHT31;53633;49.932;10.884;2024-01-30T15:28:01;6.81;75.91
66722;SHT31;53633;49.932;10.884;2024-01-30T15:30:28;6.81;76.09
66722;SHT31;53633;49.932;10.884;2024-01-30T15:32:55;6.78;76.21
66722;SHT31;53633;49.932;10.884;2024-01-30T15:35:22;6.75;76.29
66722;SHT31;53633;49.932;10.884;2024-01-30T15:37:50;6.69;76.53
66722;SHT31;53633;49.932;10.884;2024-01-30T15:40:17;6.69;76.74
66722;SHT31;53633;49.932;10.884;2024-01-30T15:42:43;6.69;76.71
66722;SHT31;53633;49.932;10.884;2024-01-30T15:45:10;6.65;76.78
66722;SHT31;53633;49.932;10.884;2024-01-30T15:47:37;6.61;76.96
66722;SHT31;53633;49.932;10.884;2024-01-30T15:50:04;6.56;77.04
66722;SHT31;53633;49.932;10.884;2024-01-30T15:52:32;6.54;77.34
66722;SHT31;53633;49.932;10.884;2024-01-30T15:55:00;6.48;77.42
66722;SHT31;53633;49.932;10.884;2024-01-30T15:57:27;6.45;77.55
66722;SHT31;53633;49.932;10.884;2024-01-30T15:59:56;6.40;77.70
66722;SHT31;53633;49.932;10.884;2024-01-30T16:02:22;6.38;77.80
